createdAt,value
2023-02-21T00:02:34.501Z,41.10
2023-02-21T00:05:28.039Z,40.20
2023-02-21T00:08:21.616Z,41.30
2023-02-21T00:11:15.205Z,42.60
2023-02-21T00:14:08.852Z,42.30
2023-02-21T00:17:01.996Z,42.40
2023-02-21T00:19:56.860Z,40.10
2023-02-21T00:22:50.639Z,41.40
2023-02-21T00:25:45.107Z,46.90
2023-02-21T00:28:39.226Z,41.70
2023-02-21T00:31:33.313Z,40.70
2023-02-21T00:34:26.034Z,41.60
2023-02-21T00:37:19.722Z,40.00
2023-02-21T00:40:13.582Z,39.80
2023-02-21T00:43:06.177Z,40.80
2023-02-21T00:45:59.743Z,42.10
2023-02-21T00:48:52.769Z,42.30
2023-02-21T00:51:46.229Z,44.70
2023-02-21T00:54:39.504Z,44.90
2023-02-21T00:57:32.489Z,41.90
2023-02-21T01:00:28.925Z,40.80
2023-02-21T01:03:22.630Z,40.90
2023-02-21T01:06:16.501Z,38.60
2023-02-21T01:09:10.298Z,38.10
2023-02-21T01:12:04.232Z,39.50
2023-02-21T01:14:59.273Z,40.00
2023-02-21T01:17:53.406Z,39.30
2023-02-21T01:20:46.438Z,38.90
2023-02-21T01:23:39.508Z,41.70
2023-02-21T01:26:33.576Z,41.40
2023-02-21T01:29:27.124Z,39.80
2023-02-21T01:32:20.060Z,37.00
2023-02-21T01:35:13.775Z,39.80
2023-02-21T01:38:06.722Z,39.50
2023-02-21T01:41:02.487Z,40.50
2023-02-21T01:43:56.122Z,38.00
2023-02-21T01:46:49.806Z,39.00
2023-02-21T01:49:44.340Z,40.10
2023-02-21T01:52:38.506Z,41.60
2023-02-21T01:55:33.427Z,42.30
2023-02-21T01:58:27.279Z,40.30
2023-02-21T02:01:20.639Z,40.40
2023-02-21T02:04:14.921Z,37.50
2023-02-21T02:07:09.010Z,37.20
2023-02-21T02:10:03.525Z,36.10
2023-02-21T02:13:18.302Z,35.30
2023-02-21T02:16:07.070Z,34.90
2023-02-21T02:19:33.285Z,37.00
2023-02-21T02:22:50.127Z,35.90
2023-02-21T02:25:55.582Z,39.00
2023-02-21T02:29:03.488Z,38.50
2023-02-21T02:32:15.542Z,37.30
2023-02-21T02:35:02.633Z,35.00
2023-02-21T02:37:54.462Z,36.20
2023-02-21T02:40:44.487Z,36.10
2023-02-21T02:43:29.424Z,35.20
2023-02-21T02:46:17.030Z,35.90
2023-02-21T02:49:00.767Z,34.90
2023-02-21T02:51:38.149Z,35.40
2023-02-21T02:54:16.805Z,36.10
2023-02-21T02:56:53.517Z,35.90
2023-02-21T02:59:37.782Z,36.80
2023-02-21T03:02:47.056Z,37.10
2023-02-21T03:05:49.986Z,35.80
2023-02-21T03:08:44.476Z,35.00
2023-02-21T03:11:25.593Z,32.90
2023-02-21T03:14:11.666Z,35.50
2023-02-21T03:16:54.542Z,35.10
2023-02-21T03:19:36.744Z,34.90
2023-02-21T03:22:17.919Z,32.10
2023-02-21T03:24:58.656Z,38.50
2023-02-21T03:27:36.048Z,38.20
2023-02-21T03:30:32.576Z,33.20
2023-02-21T03:33:09.295Z,36.40
2023-02-21T03:35:46.514Z,35.50
2023-02-21T03:38:23.338Z,34.80
2023-02-21T03:41:03.227Z,31.30
2023-02-21T03:43:41.141Z,29.20
2023-02-21T03:46:18.585Z,33.00
2023-02-21T03:48:55.970Z,31.10
2023-02-21T03:51:36.158Z,31.80
2023-02-21T03:54:13.646Z,33.30
2023-02-21T03:56:53.292Z,38.60
2023-02-21T03:59:37.939Z,39.00
2023-02-21T04:02:14.953Z,37.40
2023-02-21T04:04:54.401Z,35.50
2023-02-21T04:07:32.279Z,35.70
2023-02-21T04:10:11.070Z,35.30
2023-02-21T04:12:53.582Z,34.50
2023-02-21T04:15:31.407Z,31.90
2023-02-21T04:18:08.468Z,31.10
2023-02-21T04:20:46.689Z,30.40
2023-02-21T04:23:30.632Z,31.40
2023-02-21T04:26:07.035Z,42.90
2023-02-21T04:28:56.645Z,42.50
2023-02-21T04:31:33.341Z,39.50
2023-02-21T04:34:19.396Z,36.70
2023-02-21T04:36:56.076Z,36.20
2023-02-21T04:39:33.905Z,35.80
2023-02-21T04:42:11.232Z,35.10
2023-02-21T04:44:59.627Z,33.80
2023-02-21T04:47:37.264Z,33.20
2023-02-21T04:50:17.177Z,34.40
2023-02-21T04:52:55.023Z,34.60
2023-02-21T04:55:32.402Z,33.40
2023-02-21T04:58:09.905Z,33.40
2023-02-21T05:00:47.422Z,37.90
2023-02-21T05:03:24.650Z,36.60
2023-02-21T05:06:02.308Z,38.80
2023-02-21T05:08:41.088Z,37.70
2023-02-21T05:11:18.351Z,35.60
2023-02-21T05:13:55.105Z,35.70
2023-02-21T05:16:32.635Z,33.90
2023-02-21T05:19:08.984Z,34.30
2023-02-21T05:21:46.370Z,32.40
2023-02-21T05:24:27.369Z,32.30
2023-02-21T05:27:05.038Z,33.10
2023-02-21T05:29:44.892Z,31.70
2023-02-21T05:32:23.005Z,33.90
2023-02-21T05:35:00.176Z,31.30
2023-02-21T05:37:37.295Z,30.80
2023-02-21T05:40:19.434Z,38.60
2023-02-21T05:42:56.455Z,38.40
2023-02-21T05:45:33.970Z,36.40
2023-02-21T05:48:14.967Z,35.80
2023-02-21T05:50:51.956Z,34.70
2023-02-21T05:53:28.866Z,34.60
2023-02-21T05:56:05.725Z,34.50
2023-02-21T05:58:44.343Z,34.90
2023-02-21T06:01:22.034Z,35.10
2023-02-21T06:03:58.514Z,38.40
2023-02-21T06:06:35.162Z,37.70
2023-02-21T06:09:12.068Z,36.10
2023-02-21T06:11:48.877Z,37.00
2023-02-21T06:14:27.725Z,35.40
2023-02-21T06:17:06.138Z,36.40
2023-02-21T06:19:44.597Z,38.10
2023-02-21T06:22:23.110Z,37.70
2023-02-21T06:24:59.985Z,38.50
2023-02-21T06:27:37.514Z,41.50
2023-02-21T06:30:23.181Z,38.70
2023-02-21T06:32:59.914Z,41.20
2023-02-21T06:35:38.779Z,40.10
2023-02-21T06:38:18.174Z,38.70
2023-02-21T06:40:55.088Z,39.00
2023-02-21T06:43:31.519Z,37.50
2023-02-21T06:46:09.280Z,35.20
2023-02-21T06:48:46.963Z,39.30
2023-02-21T06:51:30.269Z,36.40
2023-02-21T06:54:08.244Z,36.50
2023-02-21T06:56:46.230Z,35.90
2023-02-21T06:59:22.986Z,39.70
2023-02-21T07:01:59.984Z,40.40
2023-02-21T07:04:37.282Z,40.50
2023-02-21T07:07:13.901Z,39.20
2023-02-21T07:09:51.120Z,36.20
2023-02-21T07:12:30.304Z,36.90
2023-02-21T07:15:08.250Z,36.60
2023-02-21T07:17:45.871Z,37.40
2023-02-21T07:20:23.112Z,35.50
2023-02-21T07:23:00.384Z,35.20
2023-02-21T07:25:36.576Z,39.20
2023-02-21T07:28:17.411Z,35.80
2023-02-21T07:30:55.240Z,36.10
2023-02-21T07:33:32.395Z,35.90
2023-02-21T07:36:10.191Z,33.20
2023-02-21T07:38:47.049Z,30.30
2023-02-21T07:41:24.074Z,30.70
2023-02-21T07:44:01.466Z,31.80
2023-02-21T07:46:38.383Z,31.50
2023-02-21T07:49:15.234Z,33.60
2023-02-21T07:51:51.939Z,33.80
2023-02-21T07:54:29.219Z,35.00
2023-02-21T07:57:06.572Z,40.90
2023-02-21T07:59:43.289Z,39.40
2023-02-21T08:02:20.731Z,39.10
2023-02-21T08:04:59.732Z,37.40
2023-02-21T08:07:38.251Z,37.40
2023-02-21T08:10:23.165Z,38.80
2023-02-21T08:13:01.067Z,40.20
2023-02-21T08:15:38.049Z,38.60
2023-02-21T08:18:24.673Z,38.70
2023-02-21T08:21:02.905Z,39.50
2023-02-21T08:23:40.178Z,41.10
2023-02-21T08:26:16.769Z,43.20
2023-02-21T08:28:53.423Z,40.00
2023-02-21T08:31:31.291Z,38.20
2023-02-21T08:34:07.933Z,39.40
2023-02-21T08:36:47.831Z,39.80
2023-02-21T08:39:23.913Z,39.50
2023-02-21T08:42:00.444Z,38.90
2023-02-21T08:44:37.346Z,39.30
2023-02-21T08:47:14.265Z,42.00
2023-02-21T08:49:55.259Z,40.70
2023-02-21T08:52:31.403Z,43.10
2023-02-21T08:55:09.633Z,40.60
2023-02-21T08:57:46.861Z,42.30
2023-02-21T09:00:29.522Z,42.70
2023-02-21T09:03:06.448Z,42.10
2023-02-21T09:05:43.892Z,41.20
2023-02-21T09:08:21.288Z,38.50
2023-02-21T09:11:00.595Z,40.90
2023-02-21T09:13:37.687Z,40.00
2023-02-21T09:16:15.240Z,45.60
2023-02-21T09:18:59.929Z,52.40
2023-02-21T09:21:37.542Z,54.70
2023-02-21T09:24:15.150Z,48.20
2023-02-21T09:26:51.307Z,46.90
2023-02-21T09:29:37.038Z,48.10
2023-02-21T09:32:20.731Z,42.90
2023-02-21T09:34:56.966Z,45.00
2023-02-21T09:37:34.829Z,45.90
2023-02-21T09:40:17.854Z,42.40
2023-02-21T09:42:59.971Z,42.00
2023-02-21T09:45:39.849Z,47.30
2023-02-21T09:48:21.271Z,50.30
2023-02-21T09:51:04.073Z,51.70
2023-02-21T09:53:45.908Z,52.30
2023-02-21T09:56:38.061Z,52.20
2023-02-21T09:59:18.959Z,45.50
2023-02-21T10:02:14.872Z,50.50
2023-02-21T10:05:09.584Z,47.60
2023-02-21T10:07:59.002Z,50.80
2023-02-21T10:10:45.080Z,48.30
2023-02-21T10:13:42.317Z,49.80
2023-02-21T10:16:24.298Z,42.70
2023-02-21T10:19:14.423Z,46.50
2023-02-21T10:21:53.649Z,49.20
2023-02-21T10:24:32.560Z,47.20
2023-02-21T10:27:18.561Z,44.80
2023-02-21T10:30:04.970Z,45.80
2023-02-21T10:32:43.010Z,45.60
2023-02-21T10:35:21.022Z,44.00
2023-02-21T10:38:01.622Z,42.60
2023-02-21T10:40:44.458Z,42.20
2023-02-21T10:43:30.934Z,41.20
2023-02-21T10:46:15.732Z,43.50
2023-02-21T10:48:55.691Z,42.90
2023-02-21T10:51:39.740Z,46.10
2023-02-21T10:54:28.176Z,48.50
2023-02-21T10:57:10.250Z,49.60
2023-02-21T10:59:53.053Z,46.20
2023-02-21T11:02:40.508Z,49.40
2023-02-21T11:05:23.853Z,45.80
2023-02-21T11:08:36.537Z,47.20
2023-02-21T11:11:14.502Z,51.70
2023-02-21T11:13:51.652Z,49.20
2023-02-21T11:16:28.306Z,51.60
2023-02-21T11:19:15.404Z,55.10
2023-02-21T11:22:00.566Z,50.20
2023-02-21T11:24:38.280Z,52.20
2023-02-21T11:27:17.040Z,59.10
2023-02-21T11:29:57.772Z,53.20
2023-02-21T11:32:40.213Z,55.30
2023-02-21T11:35:32.774Z,54.80
2023-02-21T11:38:32.166Z,58.50
2023-02-21T11:41:24.552Z,55.90
2023-02-21T11:44:02.127Z,59.40
2023-02-21T11:46:53.226Z,57.30
2023-02-21T11:49:40.184Z,52.50
2023-02-21T11:52:22.335Z,54.70
2023-02-21T11:54:58.962Z,58.60
2023-02-21T11:57:54.916Z,53.50
2023-02-21T12:00:39.961Z,50.00
2023-02-21T12:03:54.530Z,48.30
2023-02-21T12:06:44.539Z,49.80
2023-02-21T12:09:30.927Z,44.80
2023-02-21T12:12:35.969Z,51.70
2023-02-21T12:15:33.979Z,48.40
2023-02-21T12:18:30.478Z,47.70
2023-02-21T12:21:41.973Z,46.00
2023-02-21T12:24:37.595Z,47.10
2023-02-21T12:27:25.435Z,46.50
2023-02-21T12:30:27.480Z,50.10
2023-02-21T12:33:20.295Z,51.80
2023-02-21T12:36:16.370Z,50.00
2023-02-21T12:39:08.266Z,48.20
2023-02-21T12:42:01.170Z,53.20
2023-02-21T12:44:50.283Z,50.70
2023-02-21T12:47:34.935Z,49.80
2023-02-21T12:50:19.817Z,47.10
2023-02-21T12:53:05.190Z,49.90
2023-02-21T12:55:48.198Z,51.50
2023-02-21T12:58:31.590Z,49.80
2023-02-21T13:01:21.096Z,52.50
2023-02-21T13:04:15.834Z,48.80
2023-02-21T13:07:01.477Z,49.70
2023-02-21T13:09:45.999Z,51.40
2023-02-21T13:12:28.213Z,47.70
2023-02-21T13:15:17.186Z,55.80
2023-02-21T13:18:03.902Z,45.90
2023-02-21T13:20:48.288Z,47.30
2023-02-21T13:24:06.337Z,53.10
2023-02-21T13:27:40.798Z,48.60
2023-02-21T13:30:28.171Z,50.10
2023-02-21T13:33:05.895Z,51.10
2023-02-21T13:35:45.844Z,51.40
2023-02-21T13:38:28.709Z,56.60
2023-02-21T13:41:17.090Z,51.60
2023-02-21T13:43:58.878Z,51.40
2023-02-21T13:47:15.967Z,46.60
2023-02-21T13:49:57.594Z,51.50
2023-02-21T13:53:16.650Z,53.10
2023-02-21T13:56:45.934Z,49.40
2023-02-21T13:59:42.892Z,49.40
2023-02-21T14:02:33.138Z,51.20
2023-02-21T14:05:12.908Z,51.70
2023-02-21T14:08:06.023Z,54.80
2023-02-21T14:10:50.392Z,50.70
2023-02-21T14:13:36.604Z,52.00
2023-02-21T14:16:27.864Z,51.30
2023-02-21T14:19:09.549Z,47.10
2023-02-21T14:21:51.714Z,48.70
2023-02-21T14:24:32.938Z,52.50
2023-02-21T14:27:40.547Z,49.60
2023-02-21T14:30:48.388Z,48.60
2023-02-21T14:33:32.597Z,52.20
2023-02-21T14:36:16.026Z,46.90
2023-02-21T14:38:57.822Z,51.50
2023-02-21T14:41:59.485Z,47.50
2023-02-21T14:44:56.553Z,47.20
2023-02-21T14:48:04.806Z,49.10
2023-02-21T14:50:57.498Z,51.10
2023-02-21T14:54:26.190Z,48.60
2023-02-21T14:57:37.316Z,51.90
2023-02-21T15:00:34.261Z,53.70
2023-02-21T15:03:17.443Z,57.20
2023-02-21T15:06:07.921Z,55.00
2023-02-21T15:08:55.091Z,58.40
2023-02-21T15:11:39.536Z,51.90
2023-02-21T15:14:28.882Z,53.10
2023-02-21T15:17:12.952Z,50.60
2023-02-21T15:19:50.301Z,48.00
2023-02-21T15:22:30.474Z,55.30
2023-02-21T15:25:26.684Z,55.60
2023-02-21T15:28:21.046Z,50.40
2023-02-21T15:31:10.578Z,47.00
2023-02-21T15:33:50.894Z,55.30
2023-02-21T15:36:29.780Z,48.00
2023-02-21T15:39:21.737Z,50.70
2023-02-21T15:42:00.131Z,44.70
2023-02-21T15:44:44.579Z,48.90
2023-02-21T15:47:25.696Z,47.00
2023-02-21T15:50:11.606Z,46.70
2023-02-21T15:52:52.130Z,43.50
2023-02-21T15:55:40.142Z,48.80
2023-02-21T15:58:29.056Z,49.50
2023-02-21T16:01:16.673Z,49.70
2023-02-21T16:03:52.434Z,50.80
2023-02-21T16:06:34.386Z,50.20
2023-02-21T16:09:24.607Z,52.30
2023-02-21T16:12:08.196Z,51.80
2023-02-21T16:14:51.778Z,46.30
2023-02-21T16:17:34.176Z,47.60
2023-02-21T16:20:25.746Z,51.10
2023-02-21T16:23:28.914Z,51.50
2023-02-21T16:26:25.320Z,48.10
2023-02-21T16:29:03.685Z,45.90
2023-02-21T16:31:42.310Z,44.40
2023-02-21T16:34:20.573Z,46.70
2023-02-21T16:37:05.829Z,51.90
2023-02-21T16:39:42.670Z,51.30
2023-02-21T16:42:19.655Z,51.60
2023-02-21T16:44:55.957Z,51.10
2023-02-21T16:47:32.806Z,52.50
2023-02-21T16:50:17.278Z,50.60
2023-02-21T16:52:54.355Z,46.90
2023-02-21T16:55:31.204Z,44.60
2023-02-21T16:58:22.733Z,47.50
2023-02-21T17:01:03.432Z,51.70
2023-02-21T17:03:40.940Z,46.00
2023-02-21T17:06:24.933Z,49.60
2023-02-21T17:09:02.079Z,48.90
2023-02-21T17:11:38.959Z,49.80
2023-02-21T17:14:16.151Z,51.20
2023-02-21T17:16:53.744Z,44.40
2023-02-21T17:19:31.076Z,48.00
2023-02-21T17:22:07.144Z,44.40
2023-02-21T17:24:43.947Z,46.40
2023-02-21T17:27:21.154Z,45.50
2023-02-21T17:29:58.353Z,47.40
2023-02-21T17:32:34.821Z,45.40
2023-02-21T17:35:15.120Z,50.20
2023-02-21T17:37:51.796Z,49.80
2023-02-21T17:40:30.166Z,50.70
2023-02-21T17:43:09.024Z,51.20
2023-02-21T17:45:46.196Z,50.00
2023-02-21T17:48:23.413Z,50.00
2023-02-21T17:50:59.807Z,50.00
2023-02-21T17:53:35.939Z,49.10
2023-02-21T17:56:13.276Z,51.00
2023-02-21T17:58:50.991Z,50.10
2023-02-21T18:01:29.672Z,50.80
2023-02-21T18:04:06.580Z,51.30
2023-02-21T18:06:42.459Z,52.60
2023-02-21T18:09:19.744Z,52.20
2023-02-21T18:11:58.909Z,52.00
2023-02-21T18:14:36.481Z,50.70
2023-02-21T18:17:13.794Z,50.10
2023-02-21T18:19:50.192Z,48.70
2023-02-21T18:22:27.552Z,49.50
2023-02-21T18:25:04.143Z,50.30
2023-02-21T18:27:42.587Z,48.50
2023-02-21T18:30:26.910Z,51.60
2023-02-21T18:33:03.557Z,48.50
2023-02-21T18:35:40.871Z,49.70
2023-02-21T18:38:19.020Z,52.40
2023-02-21T18:40:54.890Z,49.80
2023-02-21T18:43:34.246Z,51.50
2023-02-21T18:46:13.841Z,53.20
2023-02-21T18:48:52.349Z,54.00
2023-02-21T18:51:30.857Z,53.50
2023-02-21T18:54:08.450Z,54.50
2023-02-21T18:56:51.504Z,54.80
2023-02-21T18:59:29.210Z,55.30
2023-02-21T19:02:07.081Z,56.00
2023-02-21T19:04:44.604Z,53.80
2023-02-21T19:07:22.471Z,54.00
2023-02-21T19:09:59.962Z,53.40
2023-02-21T19:12:36.822Z,53.70
2023-02-21T19:15:16.542Z,52.00
2023-02-21T19:17:53.909Z,53.40
2023-02-21T19:20:30.601Z,53.40
2023-02-21T19:23:08.122Z,61.70
2023-02-21T19:25:44.157Z,69.80
2023-02-21T19:28:23.275Z,61.20
2023-02-21T19:30:59.719Z,58.50
2023-02-21T19:33:36.823Z,61.40
2023-02-21T19:36:17.264Z,56.90
2023-02-21T19:38:53.527Z,55.10
2023-02-21T19:41:31.374Z,54.70
2023-02-21T19:44:10.053Z,55.60
2023-02-21T19:46:46.617Z,53.80
2023-02-21T19:49:23.014Z,50.30
2023-02-21T19:52:02.727Z,52.40
2023-02-21T19:54:39.301Z,50.30
2023-02-21T19:57:15.320Z,49.80
2023-02-21T19:59:52.264Z,50.50
2023-02-21T20:02:28.967Z,47.60
2023-02-21T20:05:06.217Z,50.50
2023-02-21T20:07:43.558Z,48.00
2023-02-21T20:10:25.602Z,44.10
2023-02-21T20:13:02.473Z,42.80
2023-02-21T20:15:40.151Z,43.10
2023-02-21T20:18:16.513Z,41.50
2023-02-21T20:20:53.566Z,46.20
2023-02-21T20:23:30.408Z,43.80
2023-02-21T20:26:07.702Z,42.20
2023-02-21T20:28:44.761Z,42.60
2023-02-21T20:31:23.971Z,43.60
2023-02-21T20:34:02.917Z,46.10
2023-02-21T20:36:42.692Z,45.60
2023-02-21T20:39:29.246Z,45.90
2023-02-21T20:42:11.922Z,45.50
2023-02-21T20:44:49.299Z,48.00
2023-02-21T20:47:25.725Z,47.20
2023-02-21T20:50:02.729Z,49.00
2023-02-21T20:52:41.187Z,48.20
2023-02-21T20:55:19.582Z,48.80
2023-02-21T20:57:55.236Z,49.80
2023-02-21T21:00:32.503Z,50.00
2023-02-21T21:03:09.921Z,48.10
2023-02-21T21:05:48.073Z,50.00
2023-02-21T21:08:24.361Z,48.40
2023-02-21T21:11:01.148Z,50.20
2023-02-21T21:13:38.228Z,51.00
2023-02-21T21:16:16.131Z,50.50
2023-02-21T21:18:53.104Z,50.70
2023-02-21T21:21:36.612Z,49.80
2023-02-21T21:24:14.931Z,50.90
2023-02-21T21:26:53.322Z,51.50
2023-02-21T21:29:30.328Z,51.20
2023-02-21T21:32:09.774Z,54.20
2023-02-21T21:34:49.170Z,55.00
2023-02-21T21:37:28.857Z,51.30
2023-02-21T21:40:16.334Z,50.40
2023-02-21T21:42:55.578Z,50.60
2023-02-21T21:45:33.773Z,52.00
2023-02-21T21:48:11.389Z,53.10
2023-02-21T21:50:48.844Z,49.60
2023-02-21T21:53:25.190Z,51.00
2023-02-21T21:56:05.066Z,50.20
2023-02-21T21:58:42.419Z,51.70
2023-02-21T22:01:19.449Z,50.30
2023-02-21T22:03:56.161Z,51.80
2023-02-21T22:06:32.574Z,53.00
2023-02-21T22:09:10.558Z,53.30
2023-02-21T22:11:55.967Z,53.50
2023-02-21T22:14:34.440Z,54.60
2023-02-21T22:17:12.969Z,54.50
2023-02-21T22:19:50.859Z,52.20
2023-02-21T22:22:28.228Z,54.40
2023-02-21T22:25:12.013Z,55.00
2023-02-21T22:27:48.119Z,54.10
2023-02-21T22:30:25.447Z,52.80
2023-02-21T22:33:02.188Z,51.00
2023-02-21T22:35:39.642Z,54.10
2023-02-21T22:38:17.535Z,52.20
2023-02-21T22:40:54.385Z,53.40
2023-02-21T22:43:30.880Z,52.40
2023-02-21T22:46:08.098Z,52.30
2023-02-21T22:48:44.922Z,52.30
2023-02-21T22:51:28.886Z,56.10
2023-02-21T22:54:06.066Z,52.60
2023-02-21T22:56:51.287Z,54.30
2023-02-21T22:59:28.136Z,50.90
2023-02-21T23:02:05.841Z,52.40
2023-02-21T23:04:43.550Z,51.00
2023-02-21T23:07:21.379Z,51.10
2023-02-21T23:09:58.787Z,53.10
2023-02-21T23:12:35.584Z,51.80
2023-02-21T23:15:18.697Z,51.80
2023-02-21T23:17:56.208Z,54.30
2023-02-21T23:20:31.985Z,52.80
2023-02-21T23:23:09.317Z,51.80
2023-02-21T23:25:46.962Z,53.80
2023-02-21T23:28:23.936Z,54.50
2023-02-21T23:31:01.071Z,53.40
2023-02-21T23:33:37.371Z,52.40
2023-02-21T23:36:22.926Z,50.80
2023-02-21T23:39:00.267Z,52.00
2023-02-21T23:41:39.146Z,50.80
2023-02-21T23:44:18.014Z,50.80
2023-02-21T23:46:54.282Z,50.40
2023-02-21T23:49:30.989Z,52.10
2023-02-21T23:52:07.793Z,52.80
2023-02-21T23:54:45.138Z,54.80
2023-02-21T23:57:21.491Z,52.80
2023-02-21T23:59:59.052Z,52.50
